createdAt,value
2018-05-10T00:00:29.414Z,92.40
2018-05-10T00:04:32.141Z,92.30
2018-05-10T00:08:35.733Z,92.70
2018-05-10T00:12:38.448Z,92.70
2018-05-10T00:16:41.975Z,91.10
2018-05-10T00:20:44.692Z,91.10
2018-05-10T00:24:47.449Z,91.00
2018-05-10T00:28:50.975Z,91.70
2018-05-10T00:32:55.474Z,91.90
2018-05-10T00:36:58.197Z,91.90
2018-05-10T00:41:01.773Z,91.40
2018-05-10T00:45:04.486Z,91.40
2018-05-10T00:49:07.247Z,91.30
2018-05-10T00:53:09.986Z,91.20
2018-05-10T00:57:12.882Z,91.30
2018-05-10T01:01:15.677Z,90.40
2018-05-10T01:05:18.538Z,90.20
2018-05-10T01:09:21.247Z,90.40
2018-05-10T01:13:25.325Z,90.20
2018-05-10T01:17:28.226Z,90.40
2018-05-10T01:21:31.088Z,89.10
2018-05-10T01:25:33.811Z,89.30
2018-05-10T01:29:36.793Z,88.80
2018-05-10T01:33:39.586Z,89.80
2018-05-10T01:37:42.529Z,90.30
2018-05-10T01:41:46.037Z,89.80
2018-05-10T01:45:49.622Z,89.90
2018-05-10T01:49:52.350Z,89.80
2018-05-10T01:53:55.907Z,89.80
2018-05-10T01:57:58.653Z,89.70
2018-05-10T02:02:02.174Z,90.10
2018-05-10T02:06:05.685Z,89.70
2018-05-10T02:10:09.428Z,90.20
2018-05-10T02:14:12.207Z,90.00
2018-05-10T02:18:15.789Z,89.80
2018-05-10T02:22:18.538Z,89.80
2018-05-10T02:26:21.395Z,90.50
2018-05-10T02:30:24.210Z,90.40
2018-05-10T02:34:27.793Z,90.00
2018-05-10T02:38:30.498Z,89.90
2018-05-10T02:42:33.339Z,90.50
2018-05-10T02:46:36.142Z,90.40
2018-05-10T02:50:38.921Z,90.00
2018-05-10T02:54:42.416Z,89.80
2018-05-10T02:58:45.231Z,89.60
2018-05-10T03:02:48.708Z,90.10
2018-05-10T03:06:51.524Z,90.20
2018-05-10T03:10:54.241Z,88.90
2018-05-10T03:14:57.717Z,89.30
2018-05-10T03:19:00.444Z,89.30
2018-05-10T03:23:03.208Z,89.00
2018-05-10T03:27:06.730Z,89.80
2018-05-10T03:31:09.526Z,89.60
2018-05-10T03:35:12.259Z,90.10
2018-05-10T03:39:15.249Z,90.40
2018-05-10T03:43:17.975Z,90.80
2018-05-10T03:47:20.961Z,91.30
2018-05-10T03:51:23.711Z,91.00
2018-05-10T03:55:26.673Z,91.20
2018-05-10T03:59:30.164Z,91.00
2018-05-10T04:03:57.785Z,91.00
2018-05-10T04:08:12.669Z,91.40
2018-05-10T04:12:15.490Z,91.30
2018-05-10T04:16:19.239Z,91.40
2018-05-10T04:20:22.007Z,91.30
2018-05-10T04:24:25.751Z,91.50
2018-05-10T04:28:28.459Z,91.40
2018-05-10T04:32:31.415Z,91.50
2018-05-10T04:36:34.123Z,91.20
2018-05-10T04:40:37.695Z,90.00
2018-05-10T04:44:40.438Z,90.00
2018-05-10T04:48:43.990Z,89.70
2018-05-10T04:52:47.824Z,89.10
2018-05-10T04:56:50.706Z,88.70
2018-05-10T05:00:53.441Z,88.80
2018-05-10T05:04:56.254Z,88.20
2018-05-10T05:08:59.019Z,88.40
2018-05-10T05:13:01.749Z,88.60
2018-05-10T05:17:04.579Z,88.30
2018-05-10T05:21:07.473Z,89.10
2018-05-10T05:25:10.202Z,90.10
2018-05-10T05:29:16.199Z,90.20
2018-05-10T05:33:19.099Z,90.00
2018-05-10T05:37:23.205Z,89.90
2018-05-10T05:41:27.513Z,90.10
2018-05-10T05:45:32.588Z,90.10
2018-05-10T05:49:38.002Z,89.70
2018-05-10T05:53:45.886Z,90.20
2018-05-10T05:57:52.092Z,90.20
2018-05-10T06:01:55.070Z,90.20
2018-05-10T06:05:58.608Z,90.50
2018-05-10T06:10:01.389Z,90.40
2018-05-10T06:14:04.165Z,90.50
2018-05-10T06:18:06.884Z,90.40
2018-05-10T06:22:10.365Z,90.70
2018-05-10T06:26:13.169Z,90.60
2018-05-10T06:30:15.951Z,90.10
2018-05-10T06:34:18.755Z,90.20
2018-05-10T06:38:22.285Z,87.00
2018-05-10T06:42:25.050Z,87.10
2018-05-10T06:46:27.766Z,85.00
2018-05-10T06:50:30.567Z,84.30
2018-05-10T06:54:33.371Z,76.40
2018-05-10T06:58:36.034Z,75.20
2018-05-10T07:02:38.829Z,76.90
2018-05-10T07:06:41.581Z,72.90
2018-05-10T07:10:45.138Z,68.50
2018-05-10T07:14:47.940Z,68.50
2018-05-10T07:18:51.662Z,65.60
2018-05-10T07:22:54.366Z,64.90
2018-05-10T07:26:57.086Z,68.90
2018-05-10T07:30:59.929Z,63.40
2018-05-10T07:35:02.641Z,65.60
2018-05-10T07:39:05.468Z,64.40
2018-05-10T07:43:08.179Z,64.60
2018-05-10T07:47:10.902Z,61.90
2018-05-10T07:51:14.431Z,60.80
2018-05-10T07:55:17.229Z,60.70
2018-05-10T07:59:20.775Z,58.00
2018-05-10T08:03:23.586Z,58.00
2018-05-10T08:07:26.425Z,55.60
2018-05-10T08:11:29.949Z,55.70
2018-05-10T08:15:33.014Z,55.70
2018-05-10T08:19:35.869Z,55.90
2018-05-10T08:23:48.612Z,54.50
2018-05-10T08:27:51.337Z,54.60
2018-05-10T08:31:55.753Z,52.60
2018-05-10T08:36:01.668Z,49.10
2018-05-10T08:40:04.730Z,45.10
2018-05-10T08:44:07.814Z,44.20
2018-05-10T08:48:10.615Z,43.40
2018-05-10T08:52:17.405Z,43.50
2018-05-10T08:56:23.892Z,42.50
2018-05-10T09:00:26.687Z,41.80
2018-05-10T09:04:29.475Z,39.70
2018-05-10T09:08:32.219Z,38.30
2018-05-10T09:12:35.009Z,37.70
2018-05-10T09:16:38.232Z,37.90
2018-05-10T09:20:41.744Z,38.80
2018-05-10T09:24:45.245Z,40.90
2018-05-10T09:28:47.982Z,40.80
2018-05-10T09:32:50.720Z,40.40
2018-05-10T09:36:53.489Z,37.30
2018-05-10T09:40:56.265Z,36.30
2018-05-10T09:44:59.094Z,33.50
2018-05-10T09:49:02.103Z,32.60
2018-05-10T09:53:04.872Z,35.50
2018-05-10T09:57:07.645Z,37.20
2018-05-10T10:01:23.186Z,35.10
2018-05-10T10:05:25.948Z,34.80
2018-05-10T10:09:44.196Z,38.20
2018-05-10T10:13:58.711Z,33.50
2018-05-10T10:18:03.044Z,32.80
2018-05-10T10:22:05.878Z,31.50
2018-05-10T10:26:08.849Z,30.80
2018-05-10T10:30:12.363Z,32.50
2018-05-10T10:34:15.285Z,32.70
2018-05-10T10:38:19.092Z,32.10
2018-05-10T10:42:21.759Z,32.10
2018-05-10T10:46:24.675Z,29.20
2018-05-10T10:50:29.145Z,27.60
2018-05-10T10:54:32.041Z,27.80
2018-05-10T10:58:35.653Z,29.70
2018-05-10T11:02:40.142Z,28.90
2018-05-10T11:06:43.998Z,30.90
2018-05-10T11:10:46.866Z,30.80
2018-05-10T11:14:49.693Z,28.60
2018-05-10T11:18:52.623Z,27.90
2018-05-10T11:22:55.373Z,28.50
2018-05-10T11:26:58.451Z,30.50
2018-05-10T11:31:01.327Z,28.90
2018-05-10T11:35:04.243Z,26.60
2018-05-10T11:39:07.112Z,26.50
2018-05-10T11:43:09.796Z,27.40
2018-05-10T11:47:12.600Z,25.90
2018-05-10T11:51:15.973Z,27.80
2018-05-10T11:55:18.841Z,26.30
2018-05-10T11:59:21.633Z,28.30
2018-05-10T12:03:24.388Z,29.50
2018-05-10T12:07:27.307Z,30.00
2018-05-10T12:11:30.121Z,30.70
2018-05-10T12:15:33.875Z,27.90
2018-05-10T12:19:36.861Z,27.90
2018-05-10T12:23:39.702Z,28.40
2018-05-10T12:27:42.762Z,29.70
2018-05-10T12:31:45.483Z,29.80
2018-05-10T12:35:48.207Z,30.40
2018-05-10T12:39:51.368Z,29.90
2018-05-10T12:43:54.367Z,32.40
2018-05-10T12:47:57.473Z,32.40
2018-05-10T12:52:00.296Z,32.10
2018-05-10T12:56:03.157Z,28.60
2018-05-10T13:00:07.064Z,28.80
2018-05-10T13:04:09.891Z,28.80
2018-05-10T13:08:13.847Z,27.60
2018-05-10T13:12:16.798Z,27.40
2018-05-10T13:16:20.412Z,25.30
2018-05-10T13:20:24.487Z,23.60
2018-05-10T13:24:27.290Z,23.60
2018-05-10T13:28:30.127Z,22.60
2018-05-10T13:32:33.768Z,21.90
2018-05-10T13:36:36.500Z,21.80
2018-05-10T13:40:40.324Z,22.10
2018-05-10T13:44:43.099Z,21.60
2018-05-10T13:48:45.839Z,21.30
2018-05-10T13:52:48.625Z,21.70
2018-05-10T13:56:51.469Z,25.20
2018-05-10T14:00:57.172Z,24.10
2018-05-10T14:04:59.945Z,24.10
2018-05-10T14:09:02.788Z,25.50
2018-05-10T14:13:05.628Z,27.60
2018-05-10T14:17:09.140Z,28.70
2018-05-10T14:21:12.704Z,32.10
2018-05-10T14:25:15.584Z,32.00
2018-05-10T14:29:19.126Z,33.10
2018-05-10T14:33:23.014Z,33.00
2018-05-10T14:37:25.794Z,35.10
2018-05-10T14:41:30.390Z,33.80
2018-05-10T14:45:33.188Z,33.70
2018-05-10T14:49:35.962Z,33.90
2018-05-10T14:53:38.757Z,32.80
2018-05-10T14:57:41.563Z,34.30
2018-05-10T15:01:48.140Z,35.70
2018-05-10T15:05:50.901Z,38.90
2018-05-10T15:09:53.749Z,38.00
2018-05-10T15:13:57.607Z,41.90
2018-05-10T15:18:00.809Z,41.00
2018-05-10T15:22:04.948Z,39.60
2018-05-10T15:26:07.918Z,38.40
2018-05-10T15:30:10.902Z,39.40
2018-05-10T15:34:14.287Z,40.80
2018-05-10T15:38:17.022Z,40.80
2018-05-10T15:42:20.660Z,41.40
2018-05-10T15:46:24.161Z,41.70
2018-05-10T15:50:26.964Z,41.70
2018-05-10T15:54:29.740Z,46.80
2018-05-10T15:58:32.537Z,40.30
2018-05-10T16:02:36.405Z,42.30
2018-05-10T16:06:39.238Z,42.30
2018-05-10T16:10:43.519Z,45.20
2018-05-10T16:14:46.389Z,48.00
2018-05-10T16:18:49.134Z,50.50
2018-05-10T16:22:51.952Z,52.20
2018-05-10T16:26:56.486Z,51.80
2018-05-10T16:30:59.983Z,52.50
2018-05-10T16:35:03.196Z,52.50
2018-05-10T16:39:06.311Z,53.10
2018-05-10T16:43:09.274Z,54.60
2018-05-10T16:47:12.042Z,55.80
2018-05-10T16:51:14.901Z,57.90
2018-05-10T16:55:17.610Z,55.60
2018-05-10T16:59:21.302Z,57.40
2018-05-10T17:03:25.126Z,56.00
2018-05-10T17:07:27.896Z,55.80
2018-05-10T17:11:30.701Z,54.80
2018-05-10T17:15:33.510Z,55.20
2018-05-10T17:19:36.485Z,57.10
2018-05-10T17:23:39.271Z,56.80
2018-05-10T17:27:42.071Z,57.30
2018-05-10T17:31:44.851Z,57.30
2018-05-10T17:35:47.591Z,58.10
2018-05-10T17:39:50.639Z,58.60
2018-05-10T17:43:54.517Z,59.70
2018-05-10T17:47:58.257Z,59.70
2018-05-10T17:52:01.257Z,60.50
2018-05-10T17:56:04.114Z,61.60
2018-05-10T18:00:06.872Z,63.10
2018-05-10T18:04:09.664Z,62.70
2018-05-10T18:08:12.497Z,63.10
2018-05-10T18:12:15.553Z,63.80
2018-05-10T18:16:18.352Z,65.80
2018-05-10T18:20:21.082Z,65.80
2018-05-10T18:24:24.946Z,64.90
2018-05-10T18:28:27.856Z,64.90
2018-05-10T18:32:30.625Z,64.30
2018-05-10T18:36:34.749Z,64.80
2018-05-10T18:40:39.542Z,64.60
2018-05-10T18:44:44.820Z,65.70
2018-05-10T18:48:47.846Z,64.60
2018-05-10T18:52:51.136Z,63.60
2018-05-10T18:56:54.742Z,65.70
2018-05-10T19:00:57.497Z,65.70
2018-05-10T19:05:00.528Z,67.10
2018-05-10T19:09:03.732Z,67.30
2018-05-10T19:13:06.543Z,67.90
2018-05-10T19:17:09.403Z,67.30
2018-05-10T19:21:12.368Z,67.70
2018-05-10T19:25:15.996Z,69.80
2018-05-10T19:29:19.075Z,69.10
2018-05-10T19:33:21.905Z,69.10
2018-05-10T19:37:24.716Z,68.70
2018-05-10T19:41:27.970Z,69.10
2018-05-10T19:45:30.955Z,69.10
2018-05-10T19:49:33.883Z,69.00
2018-05-10T19:58:05.677Z,70.90
2018-05-10T20:02:08.713Z,70.90
2018-05-10T20:06:11.973Z,72.80
2018-05-10T20:10:14.823Z,73.60
2018-05-10T20:14:17.664Z,73.60
2018-05-10T20:18:21.276Z,75.00
2018-05-10T20:22:24.790Z,75.70
2018-05-10T20:26:27.584Z,75.80
2018-05-10T20:30:30.312Z,74.90
2018-05-10T20:34:33.247Z,75.20
2018-05-10T20:38:36.223Z,74.30
2018-05-10T20:42:39.225Z,76.20
2018-05-10T20:46:41.992Z,75.90
2018-05-10T20:50:45.505Z,76.50
2018-05-10T20:54:49.199Z,76.50
2018-05-10T20:58:53.010Z,76.40
2018-05-10T21:02:57.005Z,76.30
2018-05-10T21:07:00.529Z,78.70
2018-05-10T21:11:03.895Z,78.60
2018-05-10T21:15:06.779Z,78.70
2018-05-10T21:19:09.681Z,78.70
2018-05-10T21:23:13.542Z,80.50
2018-05-10T21:27:17.231Z,81.10
2018-05-10T21:31:21.124Z,81.00
2018-05-10T21:35:23.975Z,81.90
2018-05-10T21:39:26.745Z,84.10
2018-05-10T21:43:29.587Z,85.30
2018-05-10T21:47:32.334Z,87.60
2018-05-10T21:51:36.357Z,90.30
2018-05-10T21:55:39.132Z,91.80
2018-05-10T21:59:41.957Z,91.50
2018-05-10T22:03:44.718Z,92.50
2018-05-10T22:07:47.505Z,92.90
2018-05-10T22:11:51.092Z,90.90
2018-05-10T22:15:54.653Z,89.70
2018-05-10T22:19:57.402Z,89.50
2018-05-10T22:24:01.036Z,93.10
2018-05-10T22:28:03.851Z,93.00
2018-05-10T22:32:06.763Z,93.20
2018-05-10T22:36:09.545Z,93.40
2018-05-10T22:40:12.339Z,93.30
2018-05-10T22:44:15.141Z,94.30
2018-05-10T22:48:17.915Z,94.00
2018-05-10T22:52:20.708Z,94.70
2018-05-10T22:56:24.282Z,91.00
2018-05-10T23:00:27.864Z,92.00
2018-05-10T23:04:30.653Z,92.10
2018-05-10T23:08:34.387Z,93.80
2018-05-10T23:12:37.122Z,93.80
2018-05-10T23:16:39.911Z,93.60
2018-05-10T23:20:42.624Z,94.40
2018-05-10T23:24:45.420Z,94.20
2018-05-10T23:28:48.165Z,94.90
2018-05-10T23:32:50.894Z,94.70
2018-05-10T23:36:53.659Z,94.50
2018-05-10T23:40:56.399Z,95.10
2018-05-10T23:44:59.325Z,95.30
2018-05-10T23:49:02.118Z,95.00
2018-05-10T23:53:04.854Z,95.50
2018-05-10T23:57:07.739Z,95.30
